Regen radar Meer informatie rain snow radar


Bezoek onze andere website:

Template documentation
and downloads

And another site



METAR rapporten vliegvelden

   
EBAW - Antwerp
Gewijzigd: 17-10-2018 20:20
Licht bewolkt  
Licht bewolkt  
   Wind: Noorden 9.3 km/h
Wind: Noorden 9.3 km/h
Temperatuur: 15°C
Dauwpunt: 11°C
Vochtigheid: 77%
Barometer: 1021 hPa
Bewolking: Licht bewolkt
Zicht: 2 km
Bewolking: Licht bewolkt 3200 ft
EBAW 171820Z 35005KT 2000 FEW032 15/11 Q1021
EBLG - Liège
Gewijzigd: 17-10-2018 20:20
Gedeeltelijk bewolkt  
Gedeeltelijk bewolkt  
   Wind: Noorden 7.4 km/h
Wind: Noorden 7.4 km/h
Temperatuur: 15°C
Dauwpunt: 12°C
Vochtigheid: 82%
Barometer: 1020 hPa
Bewolking: Gedeeltelijk bewolkt
Zicht: 9 km
Bewolking: Gedeeltelijk bewolkt
EBLG 171820Z 36004KT 9000 NSC 15/12 Q1020 NOSIG
EBCV - Mons/Bergen
Gewijzigd: 17-10-2018 20:25
Helder  
Helder  
   Wind: NNO 11.1 km/h
Wind: NNO 11.1 km/h
Temperatuur: 15°C
Dauwpunt: 12°C
Vochtigheid: 82%
Barometer: 1021 hPa
Bewolking: Helder
Zicht: meer dan 10 km
Bewolking: Helder
EBCV 171825Z AUTO 02006KT 9999 NCD 15/12 Q1021 BLU
EHBK - Maastricht
Gewijzigd: 17-10-2018 20:25
Gedeeltelijk bewolkt  
Gedeeltelijk bewolkt  
   Wind: Noorden 7.4 km/h
Wind: Noorden 7.4 km/h
Temperatuur: 16°C
Dauwpunt: 13°C
Vochtigheid: 83%
Barometer: 1020 hPa
Bewolking: Gedeeltelijk bewolkt
Zicht: meer dan 10 km
Bewolking: Gedeeltelijk bewolkt
EHBK 171825Z AUTO 36004KT 320V030 9999 NSC 16/13 Q1020 NOSIG
ELLX - Luxemburg
Gewijzigd: 17-10-2018 20:20
Helder  
Helder  
   Wind: NO 11.1 km/h
Wind: NO 11.1 km/h
Temperatuur: 18°C
Dauwpunt: 9°C
Vochtigheid: 56%
Barometer: 1019 hPa
Zicht: meer dan 10 km
Bewolking: Helder
ELLX 171820Z 04006KT CAVOK 18/09 Q1019 NOSIG
EBOS - Oostende
Gewijzigd: 17-10-2018 20:20
Licht bewolkt  
Licht bewolkt  
   Wind: Noorden 11.1 km/h
Wind: Noorden 11.1 km/h
Temperatuur: 14°C
Dauwpunt: 11°C
Vochtigheid: 82%
Barometer: 1021 hPa
Bewolking: Licht bewolkt
Zicht: meer dan 10 km
Bewolking: Licht bewolkt 3500 ft
EBOS 171820Z 01006KT 9999 FEW035 14/11 Q1021 NOSIG

Script ontwikkeld door  Saratoga-weather.org Aangepast voor de template door  Weerstation Leuven

U vindt ons ook hier:

Het Weer Aktueel

Weather Underground

Apparatuur in gebruik:

Weercomputer
apple

Webleverancier
weservit

apple

weservit